createdAt,value
2022-09-12T00:01:08.000Z,10.88
2022-09-12T00:03:35.412Z,10.94
2022-09-12T00:06:08.214Z,10.73
2022-09-12T00:08:35.228Z,10.69
2022-09-12T00:11:07.636Z,10.65
2022-09-12T00:13:39.531Z,10.65
2022-09-12T00:16:21.294Z,10.72
2022-09-12T00:18:48.943Z,10.63
2022-09-12T00:21:18.262Z,10.53
2022-09-12T00:23:45.886Z,10.48
2022-09-12T00:26:13.685Z,10.32
2022-09-12T00:28:41.484Z,10.26
2022-09-12T00:31:18.879Z,10.27
2022-09-12T00:33:46.053Z,10.35
2022-09-12T00:36:17.311Z,10.39
2022-09-12T00:38:45.714Z,10.42
2022-09-12T00:41:33.408Z,10.41
2022-09-12T00:44:12.674Z,10.45
2022-09-12T00:47:15.765Z,10.37
2022-09-12T00:50:13.984Z,10.23
2022-09-12T00:52:48.112Z,10.14
2022-09-12T00:55:23.933Z,10.17
2022-09-12T00:58:05.037Z,10.05
2022-09-12T01:00:32.439Z,10.00
2022-09-12T01:03:06.185Z,10.08
2022-09-12T01:05:37.846Z,10.09
2022-09-12T01:08:06.073Z,10.03
2022-09-12T01:10:35.898Z,10.02
2022-09-12T01:13:07.245Z,9.90
2022-09-12T01:15:35.069Z,9.84
2022-09-12T01:18:19.154Z,9.89
2022-09-12T01:21:16.430Z,9.84
2022-09-12T01:23:54.950Z,9.78
2022-09-12T01:26:57.779Z,9.69
2022-09-12T01:29:45.520Z,9.82
2022-09-12T01:32:47.025Z,9.87
2022-09-12T01:35:28.576Z,9.80
2022-09-12T01:38:17.773Z,9.81
2022-09-12T01:41:22.930Z,9.90
2022-09-12T01:44:01.761Z,9.74
2022-09-12T01:46:41.807Z,9.57
2022-09-12T01:49:32.974Z,9.38
2022-09-12T01:52:11.364Z,9.39
2022-09-12T01:54:48.189Z,9.47
2022-09-12T01:57:25.731Z,9.51
2022-09-12T02:00:01.200Z,9.34
2022-09-12T02:02:49.145Z,9.32
2022-09-12T02:05:39.389Z,9.40
2022-09-12T02:08:15.674Z,9.45
2022-09-12T02:11:10.674Z,9.51
2022-09-12T02:13:56.897Z,9.53
2022-09-12T02:16:36.701Z,9.49
2022-09-12T02:19:19.561Z,9.51
2022-09-12T02:21:55.496Z,9.58
2022-09-12T02:24:44.219Z,9.54
2022-09-12T02:27:49.540Z,9.47
2022-09-12T02:30:17.733Z,9.51
2022-09-12T02:33:07.019Z,9.52
2022-09-12T02:35:47.357Z,9.60
2022-09-12T02:38:28.451Z,9.53
2022-09-12T02:40:55.266Z,9.45
2022-09-12T02:43:22.022Z,9.31
2022-09-12T02:45:48.954Z,9.37
2022-09-12T02:48:29.338Z,9.38
2022-09-12T02:50:56.528Z,9.27
2022-09-12T02:53:25.920Z,9.27
2022-09-12T02:55:53.195Z,9.25
2022-09-12T02:58:26.501Z,9.32
2022-09-12T03:01:23.160Z,9.28
2022-09-12T03:04:34.871Z,9.29
2022-09-12T03:07:20.006Z,9.28
2022-09-12T03:10:03.828Z,9.22
2022-09-12T03:12:46.669Z,9.26
2022-09-12T03:15:42.249Z,9.27
2022-09-12T03:18:34.886Z,9.25
2022-09-12T03:21:27.598Z,9.25
2022-09-12T03:24:18.742Z,9.17
2022-09-12T03:26:56.581Z,9.12
2022-09-12T03:29:26.274Z,9.14
2022-09-12T03:31:58.264Z,9.16
2022-09-12T03:34:27.815Z,9.20
2022-09-12T03:36:55.626Z,9.12
2022-09-12T03:39:24.552Z,9.09
2022-09-12T03:41:51.909Z,9.04
2022-09-12T03:44:19.804Z,9.00
2022-09-12T03:46:46.572Z,8.98
2022-09-12T03:49:13.665Z,8.93
2022-09-12T03:51:40.898Z,9.02
2022-09-12T03:54:07.680Z,8.94
2022-09-12T03:56:35.347Z,8.75
2022-09-12T03:59:05.361Z,8.83
2022-09-12T04:01:32.326Z,8.75
2022-09-12T04:03:59.089Z,8.70
2022-09-12T04:06:25.813Z,8.62
2022-09-12T04:08:54.854Z,8.72
2022-09-12T04:11:22.916Z,8.79
2022-09-12T04:13:50.061Z,8.69
2022-09-12T04:16:18.107Z,8.75
2022-09-12T04:18:46.209Z,8.81
2022-09-12T04:21:17.625Z,8.88
2022-09-12T04:23:45.070Z,8.86
2022-09-12T04:26:13.888Z,8.80
2022-09-12T04:28:41.743Z,8.83
2022-09-12T04:31:20.805Z,8.88
2022-09-12T04:33:47.554Z,8.89
2022-09-12T04:36:17.793Z,8.80
2022-09-12T04:38:46.991Z,8.86
2022-09-12T04:41:18.247Z,8.94
2022-09-12T04:43:48.675Z,8.89
2022-09-12T04:46:20.095Z,8.88
2022-09-12T04:48:47.902Z,8.76
2022-09-12T04:51:21.155Z,8.87
2022-09-12T04:53:51.989Z,8.81
2022-09-12T04:56:20.764Z,8.87
2022-09-12T04:58:48.875Z,8.81
2022-09-12T05:01:21.276Z,8.63
2022-09-12T05:03:50.006Z,8.65
2022-09-12T05:06:20.835Z,8.67
2022-09-12T05:08:48.077Z,8.70
2022-09-12T05:11:22.798Z,8.69
2022-09-12T05:13:52.053Z,8.70
2022-09-12T05:16:20.930Z,8.72
2022-09-12T05:18:49.128Z,8.50
2022-09-12T05:21:19.457Z,8.51
2022-09-12T05:23:50.419Z,8.61
2022-09-12T05:26:18.518Z,8.67
2022-09-12T05:28:45.253Z,8.67
2022-09-12T05:31:14.830Z,8.77
2022-09-12T05:33:44.074Z,8.77
2022-09-12T05:36:19.784Z,8.84
2022-09-12T05:38:47.766Z,8.79
2022-09-12T05:41:24.665Z,8.76
2022-09-12T05:43:57.718Z,8.65
2022-09-12T05:46:29.474Z,8.77
2022-09-12T05:48:57.445Z,8.72
2022-09-12T05:51:35.260Z,8.79
2022-09-12T05:54:04.794Z,8.84
2022-09-12T05:56:34.488Z,8.82
2022-09-12T05:59:04.803Z,8.79
2022-09-12T06:01:34.056Z,8.78
2022-09-12T06:04:05.435Z,8.79
2022-09-12T06:06:37.186Z,8.88
2022-09-12T06:09:05.311Z,8.89
2022-09-12T06:11:34.742Z,8.90
2022-09-12T06:14:02.109Z,8.91
2022-09-12T06:16:33.208Z,8.95
2022-09-12T06:19:04.709Z,8.98
2022-09-12T06:21:31.478Z,8.94
2022-09-12T06:23:59.092Z,9.05
2022-09-12T06:26:27.145Z,8.99
2022-09-12T06:28:56.745Z,9.09
2022-09-12T06:31:27.955Z,9.11
2022-09-12T06:33:56.201Z,9.14
2022-09-12T06:36:29.607Z,9.22
2022-09-12T06:39:04.226Z,9.21
2022-09-12T06:41:32.486Z,9.29
2022-09-12T06:44:00.613Z,9.33
2022-09-12T06:46:28.408Z,9.33
2022-09-12T06:49:00.702Z,9.36
2022-09-12T06:51:29.095Z,9.40
2022-09-12T06:53:57.647Z,9.44
2022-09-12T06:56:27.429Z,9.62
2022-09-12T06:58:57.621Z,9.72
2022-09-12T07:01:28.013Z,9.77
2022-09-12T07:04:00.759Z,9.87
2022-09-12T07:06:33.654Z,9.98
2022-09-12T07:09:03.544Z,10.13
2022-09-12T07:11:36.761Z,10.28
2022-09-12T07:14:06.512Z,10.37
2022-09-12T07:16:36.679Z,10.51
2022-09-12T07:19:06.427Z,10.70
2022-09-12T07:21:33.289Z,10.83
2022-09-12T07:24:00.043Z,10.99
2022-09-12T07:26:29.139Z,11.19
2022-09-12T07:29:18.720Z,11.31
2022-09-12T07:31:45.469Z,11.56
2022-09-12T07:34:12.205Z,11.74
2022-09-12T07:36:39.291Z,11.90
2022-09-12T07:39:06.215Z,12.16
2022-09-12T07:41:36.119Z,12.48
2022-09-12T07:44:04.595Z,12.73
2022-09-12T07:46:31.682Z,12.90
2022-09-12T07:49:00.823Z,13.18
2022-09-12T07:51:30.283Z,13.32
2022-09-12T07:53:57.737Z,13.57
2022-09-12T07:56:29.698Z,13.77
2022-09-12T07:58:57.538Z,14.02
2022-09-12T08:01:24.986Z,14.21
2022-09-12T08:03:58.102Z,14.52
2022-09-12T08:06:25.538Z,14.73
2022-09-12T08:08:55.621Z,14.94
2022-09-12T08:11:23.845Z,15.12
2022-09-12T08:13:55.315Z,15.41
2022-09-12T08:16:27.392Z,15.64
2022-09-12T08:18:54.634Z,15.85
2022-09-12T08:21:24.804Z,15.99
2022-09-12T08:24:04.113Z,16.32
2022-09-12T08:26:32.846Z,16.52
2022-09-12T08:28:59.982Z,16.66
2022-09-12T08:31:28.397Z,16.89
2022-09-12T08:33:56.874Z,17.08
2022-09-12T08:36:26.810Z,17.03
2022-09-12T08:39:04.940Z,17.21
2022-09-12T08:41:46.201Z,17.24
2022-09-12T08:45:03.451Z,17.62
2022-09-12T08:47:39.133Z,17.88
2022-09-12T08:50:08.750Z,18.09
2022-09-12T08:53:14.786Z,18.36
2022-09-12T08:55:59.261Z,18.49
2022-09-12T08:58:29.063Z,18.69
2022-09-12T09:01:07.568Z,18.75
2022-09-12T09:04:14.193Z,18.91
2022-09-12T09:07:26.014Z,19.03
2022-09-12T09:10:12.558Z,19.23
2022-09-12T09:13:39.892Z,19.12
2022-09-12T09:16:21.577Z,19.48
2022-09-12T09:18:49.651Z,19.73
2022-09-12T09:21:39.941Z,19.76
2022-09-12T09:24:12.166Z,19.57
2022-09-12T09:26:44.467Z,19.76
2022-09-12T09:29:24.077Z,19.71
2022-09-12T09:31:56.070Z,19.54
2022-09-12T09:34:27.004Z,19.99
2022-09-12T09:37:05.910Z,19.94
2022-09-12T09:40:10.037Z,20.08
2022-09-12T09:42:59.185Z,20.55
2022-09-12T09:45:29.258Z,20.47
2022-09-12T09:48:16.849Z,20.50
2022-09-12T09:50:44.142Z,20.57
2022-09-12T09:53:46.389Z,20.55
2022-09-12T09:56:48.538Z,20.95
2022-09-12T09:59:29.839Z,21.04
2022-09-12T10:02:23.643Z,21.08
2022-09-12T10:04:57.589Z,21.12
2022-09-12T10:07:25.429Z,21.29
2022-09-12T10:10:13.504Z,21.55
2022-09-12T10:12:40.731Z,21.77
2022-09-12T10:15:26.638Z,21.59
2022-09-12T10:17:55.845Z,21.38
2022-09-12T10:20:43.001Z,21.50
2022-09-12T10:23:37.557Z,21.62
2022-09-12T10:26:11.721Z,21.60
2022-09-12T10:28:43.492Z,21.79
2022-09-12T10:31:28.995Z,22.02
2022-09-12T10:34:00.169Z,21.95
2022-09-12T10:36:37.605Z,22.09
2022-09-12T10:39:05.641Z,22.16
2022-09-12T10:41:41.066Z,22.28
2022-09-12T10:44:15.921Z,22.30
2022-09-12T10:46:42.823Z,22.52
2022-09-12T10:49:38.142Z,22.51
2022-09-12T10:52:25.045Z,22.28
2022-09-12T10:54:52.549Z,22.38
2022-09-12T10:57:31.150Z,22.28
2022-09-12T11:00:17.958Z,22.72
2022-09-12T11:03:16.180Z,22.91
2022-09-12T11:06:01.585Z,23.41
2022-09-12T11:09:17.631Z,23.34
2022-09-12T11:11:59.728Z,23.60
2022-09-12T11:14:44.344Z,23.26
2022-09-12T11:17:34.016Z,23.21
2022-09-12T11:20:23.837Z,23.17
2022-09-12T11:23:11.020Z,23.47
2022-09-12T11:26:07.317Z,23.77
2022-09-12T11:29:00.793Z,24.06
2022-09-12T11:31:52.819Z,24.50
2022-09-12T11:34:58.390Z,24.01
2022-09-12T11:37:30.552Z,23.80
2022-09-12T11:40:23.172Z,23.84
2022-09-12T11:42:54.897Z,23.89
2022-09-12T11:45:37.332Z,24.21
2022-09-12T11:48:12.663Z,24.47
2022-09-12T11:50:39.395Z,24.24
2022-09-12T11:53:23.322Z,24.44
2022-09-12T11:56:04.398Z,24.55
2022-09-12T11:58:31.566Z,24.71
2022-09-12T12:01:16.125Z,24.68
2022-09-12T12:03:46.411Z,24.64
2022-09-12T12:06:22.005Z,24.85
2022-09-12T12:08:50.735Z,25.04
2022-09-12T12:11:34.191Z,24.91
2022-09-12T12:14:23.474Z,24.83
2022-09-12T12:16:50.990Z,24.78
2022-09-12T12:19:17.631Z,24.95
2022-09-12T12:21:50.389Z,24.81
2022-09-12T12:24:24.347Z,25.05
2022-09-12T12:26:53.517Z,25.22
2022-09-12T12:29:20.221Z,25.37
2022-09-12T12:32:08.022Z,25.73
2022-09-12T12:34:42.428Z,25.86
2022-09-12T12:37:29.792Z,26.03
2022-09-12T12:40:04.662Z,25.97
2022-09-12T12:42:34.421Z,26.28
2022-09-12T12:45:09.938Z,26.21
2022-09-12T12:47:36.565Z,25.60
2022-09-12T12:50:21.202Z,25.81
2022-09-12T12:52:54.769Z,26.45
2022-09-12T12:55:42.536Z,26.64
2022-09-12T12:58:33.188Z,26.76
2022-09-12T13:01:19.400Z,26.42
2022-09-12T13:04:02.158Z,26.45
2022-09-12T13:06:38.119Z,26.41
2022-09-12T13:09:09.964Z,26.35
2022-09-12T13:11:39.403Z,26.67
2022-09-12T13:14:42.527Z,26.97
2022-09-12T13:17:22.827Z,27.14
2022-09-12T13:20:00.767Z,27.14
2022-09-12T13:22:46.246Z,27.31
2022-09-12T13:25:31.045Z,27.05
2022-09-12T13:28:12.789Z,27.37
2022-09-12T13:30:56.334Z,27.54
2022-09-12T13:33:47.746Z,27.50
2022-09-12T13:36:44.341Z,27.44
2022-09-12T13:39:44.723Z,27.80
2022-09-12T13:42:34.681Z,27.99
2022-09-12T13:45:20.669Z,28.29
2022-09-12T13:47:54.282Z,28.01
2022-09-12T13:50:31.961Z,28.34
2022-09-12T13:53:05.476Z,28.62
2022-09-12T13:55:38.384Z,28.82
2022-09-12T13:58:06.859Z,28.62
2022-09-12T14:00:35.170Z,28.68
2022-09-12T14:03:43.338Z,28.49
2022-09-12T14:06:11.007Z,28.62
2022-09-12T14:08:41.649Z,28.87
2022-09-12T14:11:20.514Z,28.65
2022-09-12T14:13:48.305Z,28.66
2022-09-12T14:16:17.162Z,28.94
2022-09-12T14:18:48.142Z,29.10
2022-09-12T14:21:36.569Z,28.68
2022-09-12T14:24:07.036Z,28.99
2022-09-12T14:26:36.832Z,29.42
2022-09-12T14:29:08.006Z,29.37
2022-09-12T14:31:37.979Z,29.60
2022-09-12T14:34:16.306Z,29.93
2022-09-12T14:36:48.545Z,30.07
2022-09-12T14:39:41.592Z,30.12
2022-09-12T14:42:22.794Z,30.45
2022-09-12T14:44:58.533Z,30.80
2022-09-12T14:47:28.630Z,30.28
2022-09-12T14:49:55.437Z,30.56
2022-09-12T14:52:30.990Z,30.81
2022-09-12T14:55:20.179Z,31.40
2022-09-12T14:57:47.991Z,31.78
2022-09-12T15:00:20.970Z,31.84
2022-09-12T15:02:49.886Z,31.60
2022-09-12T15:05:22.297Z,31.66
2022-09-12T15:08:02.780Z,32.21
2022-09-12T15:10:36.687Z,32.44
2022-09-12T15:13:04.750Z,32.79
2022-09-12T15:15:32.676Z,32.75
2022-09-12T15:18:01.420Z,32.57
2022-09-12T15:20:32.770Z,32.70
2022-09-12T15:22:59.509Z,32.29
2022-09-12T15:25:26.504Z,31.07
2022-09-12T15:27:56.051Z,30.70
2022-09-12T15:30:22.810Z,30.32
2022-09-12T15:32:49.539Z,29.28
2022-09-12T15:35:23.718Z,28.63
2022-09-12T15:37:50.949Z,28.32
2022-09-12T15:40:20.907Z,28.04
2022-09-12T15:42:47.710Z,27.71
2022-09-12T15:45:21.879Z,27.44
2022-09-12T15:47:48.666Z,27.11
2022-09-12T15:50:15.472Z,26.78
2022-09-12T15:52:42.808Z,26.51
2022-09-12T15:55:22.181Z,26.33
2022-09-12T15:57:49.719Z,26.17
2022-09-12T16:00:18.122Z,25.87
2022-09-12T16:02:47.342Z,25.56
2022-09-12T16:05:22.026Z,25.55
2022-09-12T16:07:53.049Z,25.31
2022-09-12T16:10:24.823Z,25.26
2022-09-12T16:12:51.812Z,25.02
2022-09-12T16:15:22.030Z,24.75
2022-09-12T16:17:49.857Z,24.68
2022-09-12T16:20:17.449Z,24.68
2022-09-12T16:22:44.238Z,24.52
2022-09-12T16:25:11.065Z,24.40
2022-09-12T16:27:38.163Z,24.05
2022-09-12T16:30:07.548Z,24.03
2022-09-12T16:32:34.435Z,23.92
2022-09-12T16:35:01.250Z,23.66
2022-09-12T16:37:28.571Z,23.56
2022-09-12T16:39:55.736Z,23.72
2022-09-12T16:42:23.059Z,23.57
2022-09-12T16:44:49.793Z,23.43
2022-09-12T16:47:16.675Z,23.35
2022-09-12T16:49:43.454Z,23.20
2022-09-12T16:52:12.708Z,23.14
2022-09-12T16:54:39.721Z,23.06
2022-09-12T16:57:06.749Z,23.00
2022-09-12T16:59:33.643Z,22.94
2022-09-12T17:02:00.427Z,22.69
2022-09-12T17:04:27.433Z,22.33
2022-09-12T17:06:54.162Z,22.34
2022-09-12T17:09:22.089Z,22.25
2022-09-12T17:11:50.300Z,22.13
2022-09-12T17:14:17.275Z,22.03
2022-09-12T17:16:51.521Z,21.90
2022-09-12T17:19:30.005Z,21.76
2022-09-12T17:21:58.010Z,21.73
2022-09-12T17:24:25.697Z,21.61
2022-09-12T17:26:53.672Z,21.47
2022-09-12T17:29:21.002Z,21.35
2022-09-12T17:31:48.242Z,21.25
2022-09-12T17:34:16.359Z,21.16
2022-09-12T17:36:44.728Z,20.88
2022-09-12T17:39:13.246Z,20.88
2022-09-12T17:41:42.947Z,20.81
2022-09-12T17:44:14.298Z,20.65
2022-09-12T17:46:42.571Z,20.59
2022-09-12T17:49:14.397Z,20.47
2022-09-12T17:51:41.974Z,20.35
2022-09-12T17:54:14.108Z,20.23
2022-09-12T17:56:41.145Z,20.06
2022-09-12T17:59:13.629Z,19.97
2022-09-12T18:01:59.233Z,19.82
2022-09-12T18:04:27.211Z,19.74
2022-09-12T18:06:54.334Z,19.55
2022-09-12T18:09:24.929Z,19.48
2022-09-12T18:11:53.116Z,19.35
2022-09-12T18:14:20.689Z,19.16
2022-09-12T18:16:48.310Z,19.02
2022-09-12T18:19:16.107Z,18.98
2022-09-12T18:21:43.145Z,18.83
2022-09-12T18:24:10.775Z,18.82
2022-09-12T18:26:38.100Z,18.59
2022-09-12T18:29:04.923Z,18.58
2022-09-12T18:31:31.892Z,18.38
2022-09-12T18:34:02.729Z,18.41
2022-09-12T18:36:30.747Z,18.26
2022-09-12T18:38:59.162Z,18.23
2022-09-12T18:41:27.006Z,18.08
2022-09-12T18:43:59.037Z,18.01
2022-09-12T18:46:28.561Z,17.95
2022-09-12T18:48:58.105Z,17.84
2022-09-12T18:51:33.623Z,17.80
2022-09-12T18:54:06.300Z,17.59
2022-09-12T18:56:37.697Z,17.63
2022-09-12T18:59:06.947Z,17.45
2022-09-12T19:01:37.037Z,17.24
2022-09-12T19:04:05.112Z,17.14
2022-09-12T19:06:44.601Z,17.02
2022-09-12T19:09:14.189Z,16.79
2022-09-12T19:11:48.813Z,16.56
2022-09-12T19:14:18.496Z,16.55
2022-09-12T19:16:45.731Z,16.52
2022-09-12T19:19:12.426Z,16.43
2022-09-12T19:21:39.141Z,16.46
2022-09-12T19:24:11.334Z,16.40
2022-09-12T19:26:39.211Z,16.44
2022-09-12T19:29:07.175Z,16.26
2022-09-12T19:31:34.595Z,16.17
2022-09-12T19:34:07.956Z,15.90
2022-09-12T19:36:50.723Z,15.47
2022-09-12T19:39:19.757Z,15.51
2022-09-12T19:41:47.554Z,15.69
2022-09-12T19:44:14.399Z,15.67
2022-09-12T19:46:41.147Z,15.74
2022-09-12T19:49:09.370Z,15.77
2022-09-12T19:51:36.076Z,15.77
2022-09-12T19:54:03.087Z,15.58
2022-09-12T19:56:29.891Z,15.54
2022-09-12T19:58:57.023Z,15.51
2022-09-12T20:01:30.769Z,15.48
2022-09-12T20:03:58.737Z,15.38
2022-09-12T20:06:26.542Z,15.23
2022-09-12T20:08:54.179Z,15.04
2022-09-12T20:11:23.548Z,14.94
2022-09-12T20:13:50.742Z,14.87
2022-09-12T20:16:22.752Z,14.88
2022-09-12T20:19:02.527Z,14.86
2022-09-12T20:21:32.261Z,14.73
2022-09-12T20:24:10.023Z,14.59
2022-09-12T20:26:37.102Z,14.60
2022-09-12T20:29:05.580Z,14.61
2022-09-12T20:31:33.571Z,14.41
2022-09-12T20:34:00.648Z,14.42
2022-09-12T20:36:27.620Z,14.26
2022-09-12T20:38:58.055Z,14.17
2022-09-12T20:41:26.700Z,13.96
2022-09-12T20:43:55.629Z,13.81
2022-09-12T20:46:24.493Z,13.84
2022-09-12T20:48:52.115Z,13.82
2022-09-12T20:51:21.073Z,14.07
2022-09-12T20:53:48.747Z,14.04
2022-09-12T20:56:15.658Z,14.09
2022-09-12T20:58:44.433Z,13.95
2022-09-12T21:01:13.406Z,14.09
2022-09-12T21:03:42.062Z,14.12
2022-09-12T21:06:10.264Z,13.78
2022-09-12T21:08:37.540Z,13.64
2022-09-12T21:11:05.658Z,13.63
2022-09-12T21:13:32.958Z,13.54
2022-09-12T21:16:21.087Z,13.40
2022-09-12T21:18:53.953Z,13.48
2022-09-12T21:21:22.557Z,13.35
2022-09-12T21:23:50.926Z,13.42
2022-09-12T21:26:18.416Z,13.60
2022-09-12T21:28:45.162Z,13.55
2022-09-12T21:31:12.090Z,13.53
2022-09-12T21:33:38.910Z,13.36
2022-09-12T21:36:07.154Z,13.29
2022-09-12T21:38:34.702Z,13.24
2022-09-12T21:41:13.886Z,13.24
2022-09-12T21:43:41.082Z,13.33
2022-09-12T21:46:08.539Z,13.12
2022-09-12T21:48:36.442Z,13.22
2022-09-12T21:51:04.283Z,13.01
2022-09-12T21:53:32.001Z,12.71
2022-09-12T21:56:07.541Z,12.55
2022-09-12T21:58:35.651Z,12.57
2022-09-12T22:01:02.985Z,12.51
2022-09-12T22:03:30.111Z,12.50
2022-09-12T22:05:59.259Z,12.51
2022-09-12T22:08:26.810Z,12.47
2022-09-12T22:10:56.967Z,12.58
2022-09-12T22:13:24.235Z,12.38
2022-09-12T22:15:52.147Z,12.28
2022-09-12T22:18:19.293Z,12.07
2022-09-12T22:20:46.337Z,12.10
2022-09-12T22:23:32.209Z,12.11
2022-09-12T22:26:01.480Z,12.24
2022-09-12T22:28:29.889Z,12.34
2022-09-12T22:30:56.929Z,12.24
2022-09-12T22:33:23.718Z,12.16
2022-09-12T22:35:50.455Z,12.18
2022-09-12T22:38:17.221Z,12.10
2022-09-12T22:40:44.070Z,12.06
2022-09-12T22:43:12.020Z,12.18
2022-09-12T22:45:42.025Z,12.00
2022-09-12T22:48:09.420Z,12.01
2022-09-12T22:50:36.341Z,12.11
2022-09-12T22:53:03.091Z,11.97
2022-09-12T22:55:29.915Z,11.83
2022-09-12T22:57:56.656Z,11.76
2022-09-12T23:00:23.867Z,11.73
2022-09-12T23:02:50.655Z,11.61
2022-09-12T23:05:17.453Z,11.45
2022-09-12T23:07:44.282Z,11.47
2022-09-12T23:10:11.137Z,11.45
2022-09-12T23:12:37.940Z,11.62
2022-09-12T23:15:05.703Z,11.37
2022-09-12T23:17:34.675Z,11.47
2022-09-12T23:20:02.730Z,11.32
2022-09-12T23:22:29.497Z,11.53
2022-09-12T23:24:56.277Z,11.59
2022-09-12T23:27:23.311Z,11.71
2022-09-12T23:29:52.455Z,11.77
2022-09-12T23:32:20.261Z,11.62
2022-09-12T23:34:48.471Z,11.50
2022-09-12T23:37:15.782Z,11.52
2022-09-12T23:39:42.808Z,11.46
2022-09-12T23:42:09.642Z,11.30
2022-09-12T23:44:36.354Z,11.20
2022-09-12T23:47:03.316Z,11.15
2022-09-12T23:49:30.333Z,11.04
2022-09-12T23:51:57.091Z,10.94
2022-09-12T23:54:25.146Z,10.93
2022-09-12T23:56:52.215Z,10.89
2022-09-12T23:59:19.030Z,10.78
